Weather observations for the past three days for
Newberry County Airport
Imperial (Metric)
Date Time (edt) Wind (mph) Vis. (mi.) Weather Sky Cond. Temperature (ºF) Relative Humidity Wind Chill (°F) Heat Index (°F) Pressure Precipitation (in)
Air Dwpt 6 hour altimeter (in) sea level (mb) 1 hr 3 hr 6 hr
Max. Min.
07 01:15 Calm 10.00 Light Rain CLR 68 64.4 88% 29.91 0.0
07 00:35 E 3 10.00 Light Rain CLR 68 64.4 88% 29.93 0.0
07 00:15 Calm 7.00 Light Rain CLR 68 64.4 88% 29.94 0.0
06 23:55 SE 8 3.00 Heavy Rain CLR 66.2 64.4 94% 29.93 0.0
06 23:35 Calm 5.00 Thunderstorm Rain CLR 66.2 64.4 94% 29.99 0.0
06 23:15 Calm 7.00 Light Rain SCT045 SCT055 68 64.4 88% 29.99 0.0
06 22:55 Calm 7.00 Light Rain SCT041 SCT050 68 64.4 88% 30 0.0
06 22:35 NW 6 7.00 Light Rain SCT007 SCT012 SCT019 68 64.4 88% 30 0.0
06 21:55 NW 14 G 18 7.00 Thunderstorm Rain in Vicinity SCT045 SCT060 71.6 64.4 78% 29.95 0.0
06 21:35 NW 7 10.00 Thunderstorm CLR 77 59 54% 79 29.93 0.0
06 21:15 S 3 10.00 Thunderstorm in Vicinity CLR 78.8 55.4 45% 79 29.91 0.0
06 20:55 SE 3 10.00 Fair CLR 78.8 57.2 48% 80 29.89 0.0
06 20:35 S 3 10.00 Fair CLR 80.6 55.4 42% 81 29.9 0.0
06 20:15 S 3 10.00 Fair CLR 80.6 55.4 42% 81 29.9 0.0
06 19:55 S 5 10.00 Fair CLR 80.6 55.4 42% 81 29.9 0.0
06 19:35 S 5 10.00 Fair CLR 80.6 53.6 39% 80 29.9 0.0
06 19:15 S 6 10.00 Fair CLR 82.4 55.4 40% 82 29.9 0.0
06 18:55 S 6 10.00 Fair CLR 82.4 55.4 40% 82 29.9 0.0
06 18:35 S 6 10.00 Fair CLR 84.2 55.4 37% 83 29.91 0.0
06 18:15 Calm 10.00 Fair CLR 82.4 55.4 40% 82 29.91 0.0
06 17:55 W 5 10.00 Fair CLR 84.2 55.4 37% 83 29.92 0.0
06 17:35 SW 9 10.00 Fair CLR 84.2 55.4 37% 83 29.93 0.0
06 17:15 SW 5 10.00 Fair CLR 84.2 55.4 37% 83 29.92 0.0
06 16:55 SW 10 10.00 Fair CLR 82.4 53.6 37% 81 29.93 0.0
06 16:35 S 14 G 18 10.00 Fair CLR 82.4 53.6 37% 81 29.94 0.0
06 16:15 S 13 G 16 10.00 Fair CLR 82.4 53.6 37% 81 29.94 0.0
06 15:55 SW 16 10.00 Fair CLR 82.4 55.4 40% 82 29.96 0.0
06 15:35 SW 13 G 18 10.00 Fair CLR 80.6 55.4 42% 81 29.97 0.0
06 15:15 S 13 10.00 Fair CLR 80.6 55.4 42% 81 29.96 0.0
06 14:55 SW 9 10.00 Fair CLR 80.6 57.2 45% 81 29.98 0.0
06 14:35 S 8 10.00 Fair CLR 78.8 55.4 45% 79 29.98 0.0
06 14:15 S 10 10.00 Fair CLR 77 57.2 51% 79 29.99 0.0
06 13:55 S 9 10.00 Fair CLR 75.2 59 57% 78 30 0.0
06 13:35 S 7 G 20 10.00 Fair CLR 73.4 59 61% 30.01 0.0
06 13:15 S 12 10.00 Thunderstorm in Vicinity CLR 73.4 59 61% 30.03 0.0
06 12:55 S 9 G 16 10.00 Fair CLR 71.6 59 65% 30.03 0.0
06 12:35 S 13 G 16 10.00 Fair CLR 71.6 59 65% 30.03 0.0
06 12:15 S 9 10.00 Fair CLR 69.8 59 69% 30.05 0.0
06 11:55 S 8 10.00 Fair CLR 69.8 59 69% 30.04 0.0
06 11:35 S 10 10.00 Fair CLR 69.8 59 69% 30.04 0.0
06 11:15 S 8 10.00 Fair CLR 69.8 59 69% 30.03 0.0
06 10:55 S 12 G 16 10.00 Fair CLR 69.8 59 69% 30.02 0.0
06 10:35 S 10 G 16 10.00 Fair CLR 69.8 57.2 64% 30.01 0.0
06 10:15 S 9 10.00 Fair CLR 68 57.2 69% 30.02 0.0
06 09:55 S 8 10.00 Fair CLR 66.2 55.4 68% 30.02 0.0
06 09:35 S 8 10.00 Fair CLR 64.4 55.4 73% 30.02 0.0
06 09:15 S 7 10.00 Fair CLR 64.4 55.4 73% 30.02 0.0
06 08:55 S 6 10.00 Fair CLR 62.6 55.4 77% 30.01 0.0
06 08:35 S 6 10.00 Fair CLR 62.6 53.6 73% 30.02 0.0
06 08:15 S 6 10.00 Fair CLR 62.6 53.6 73% 30.02 0.0
06 07:55 S 5 10.00 Fair CLR 60.8 53.6 77% 30.02 0.0
06 07:35 S 5 10.00 Fair CLR 60.8 53.6 77% 30.01 0.0
06 07:15 S 3 10.00 Fair CLR 60.8 53.6 77% 30 0.0
06 06:55 SE 3 10.00 Fair CLR 60.8 53.6 77% 29.98 0.0
06 06:35 S 5 10.00 Fair CLR 60.8 51.8 72% 29.98 0.0
06 06:15 S 6 10.00 Fair CLR 60.8 51.8 72% 29.97 0.0
06 05:50 S 7 10.00 Fair CLR 60.8 51.8 72% 29.98 0.0
06 05:35 S 6 10.00 Fair CLR 60.8 51.8 72% 29.97 0.0
06 05:15 SE 7 10.00 Fair CLR 60.8 51.8 72% 29.98 0.0
06 04:35 S 5 10.00 Fair CLR 62.6 51.8 68% 29.99 0.0
06 04:15 S 7 10.00 Fair CLR 62.6 51.8 68% 30 0.0
06 03:55 S 6 10.00 Fair CLR 62.6 51.8 68% 30 0.0
06 03:35 S 6 10.00 Fair CLR 62.6 51.8 68% 30.01 0.0
06 03:15 S 5 10.00 Fair CLR 62.6 51.8 68% 30.01 0.0
06 02:55 S 7 10.00 Fair CLR 62.6 51.8 68% 30 0.0
06 02:35 S 5 10.00 Fair CLR 62.6 51.8 68% 30 0.0
06 02:15 SE 5 10.00 Fair CLR 64.4 51.8 64% 30 0.0
06 01:55 S 5 10.00 Fair CLR 64.4 51.8 64% 30.01 0.0
06 01:35 S 8 10.00 Fair CLR 64.4 51.8 64% 30.01 0.0
06 01:15 SE 6 10.00 Fair CLR 64.4 51.8 64% 30.01 0.0
06 00:55 SE 7 10.00 Fair CLR 64.4 51.8 64% 30.01 0.0
06 00:35 SE 5 10.00 Fair CLR 66.2 51.8 60% 30.01 0.0
06 00:15 SE 7 10.00 Fair CLR 68 51.8 56% 30.01 0.0
05 23:55 SE 8 10.00 Fair CLR 68 51.8 56% 30.01 0.0
05 23:35 SE 7 G 16 10.00 Fair CLR 68 51.8 56% 30.01 0.0
05 23:15 SE 10 G 16 10.00 Fair CLR 69.8 51.8 53% 30.01 0.0
05 22:55 SE 7 G 16 10.00 Fair CLR 69.8 51.8 53% 30 0.0
05 22:35 SE 7 G 16 10.00 Fair CLR 69.8 50 50% 29.99 0.0
05 22:15 SE 8 G 17 10.00 Fair CLR 69.8 48.2 46% 29.99 0.0
05 21:55 SE 3 10.00 Fair CLR 69.8 48.2 46% 29.99 0.0
05 21:35 SE 3 10.00 Fair CLR 69.8 48.2 46% 30 0.0
05 21:15 SE 3 10.00 Fair CLR 69.8 48.2 46% 29.99 0.0
05 20:55 SE 3 10.00 Fair CLR 69.8 46.4 43% 29.99 0.0
05 20:35 Calm 10.00 Fair CLR 71.6 46.4 41% 29.98 0.0
05 20:15 SE 3 10.00 Fair CLR 73.4 44.6 36% 29.97 0.0
05 19:55 SE 3 10.00 Fair CLR 77 44.6 32% 78 29.97 0.0
05 19:35 S 5 10.00 Fair CLR 77 44.6 32% 78 29.97 0.0
05 19:15 S 7 10.00 Fair CLR 78.8 42.8 28% 78 29.96 0.0
05 18:55 SE 7 10.00 Fair CLR 78.8 42.8 28% 78 29.97 0.0
05 18:35 S 9 10.00 Fair CLR 78.8 42.8 28% 78 29.98 0.0
05 18:15 S 7 G 16 10.00 Fair CLR 78.8 44.6 30% 79 29.97 0.0
05 17:55 S 8 10.00 Fair CLR 78.8 42.8 28% 78 29.97 0.0
05 17:35 S 8 10.00 Fair CLR 80.6 42.8 26% 79 29.98 0.0
05 17:15 S 10 10.00 Fair CLR 80.6 42.8 26% 79 29.98 0.0
05 16:55 S 12 10.00 Fair CLR 80.6 42.8 26% 79 29.98 0.0
05 16:35 S 12 G 17 10.00 Fair CLR 78.8 42.8 28% 78 29.99 0.0
05 16:15 S 10 G 16 10.00 Fair CLR 80.6 42.8 26% 79 30 0.0
05 15:55 S 12 G 17 10.00 Fair CLR 80.6 41 24% 79 30.01 0.0
05 15:35 S 9 G 17 10.00 Fair CLR 78.8 41 26% 78 30.01 0.0
05 15:15 S 14 10.00 Fair CLR 78.8 41 26% 78 30.02 0.0
05 14:55 S 6 10.00 Fair CLR 78.8 41 26% 78 30.02 0.0
05 14:35 S 15 10.00 Fair CLR 78.8 42.8 28% 78 30.04 0.0
05 14:15 S 12 G 17 10.00 Fair CLR 78.8 42.8 28% 78 30.05 0.0
05 13:55 S 16 G 23 10.00 Fair CLR 78.8 41 26% 78 30.06 0.0
05 13:35 S 13 G 20 10.00 Fair CLR 78.8 41 26% 78 30.05 0.0
05 13:15 SW 10 G 21 10.00 Fair CLR 78.8 41 26% 78 30.05 0.0
05 12:55 S 9 G 16 10.00 Fair CLR 77 42.8 30% 78 30.06 0.0
05 12:35 SW 13 G 22 10.00 Fair CLR 77 39.2 26% 77 30.07 0.0
05 12:15 S 15 G 21 10.00 Fair CLR 77 42.8 30% 78 30.07 0.0
05 11:35 S 8 10.00 Fair CLR 73.4 50 44% 30.08 0.0
05 11:15 S 7 G 12 10.00 Fair CLR 73.4 51.8 47% 30.08 0.0
05 10:55 S 9 10.00 Fair CLR 71.6 51.8 50% 30.08 0.0
05 10:35 S 12 10.00 Fair CLR 71.6 53.6 53% 30.08 0.0
05 10:15 S 10 10.00 Fair CLR 69.8 53.6 57% 30.08 0.0
05 09:55 S 10 G 18 10.00 Fair CLR 68 53.6 60% 30.08 0.0
05 09:35 S 10 10.00 Fair CLR 68 53.6 60% 30.07 0.0
05 09:15 S 8 10.00 Fair CLR 64.4 53.6 68% 30.07 0.0
05 08:55 S 7 10.00 Fair CLR 62.6 51.8 68% 30.08 0.0
05 08:35 S 7 10.00 Fair CLR 60.8 51.8 72% 30.08 0.0
05 08:15 S 5 10.00 Fair CLR 59 50 72% 30.07 0.0
05 07:55 SE 5 10.00 Fair CLR 57.2 50 77% 30.07 0.0
05 07:35 SE 3 10.00 Fair CLR 53.6 50 88% 30.06 0.0
05 07:15 SE 3 10.00 Fair CLR 51.8 48.2 88% 30.06 0.0
05 06:55 S 5 10.00 Fair CLR 51.8 48.2 88% 30.05 0.0
05 06:35 SE 6 10.00 Fair CLR 51.8 46.4 82% 30.05 0.0
05 06:15 S 3 10.00 Fair CLR 51.8 46.4 82% 30.04 0.0
05 05:55 S 3 10.00 Fair CLR 51.8 46.4 82% 30.04 0.0
05 05:35 S 5 10.00 Fair CLR 51.8 46.4 82% 30.04 0.0
05 05:15 S 3 10.00 Fair CLR 51.8 46.4 82% 30.03 0.0
05 04:55 S 5 10.00 Fair CLR 53.6 46.4 77% 30.03 0.0
05 04:35 S 3 10.00 Fair CLR 53.6 46.4 77% 30.03 0.0
05 04:15 S 3 10.00 Fair CLR 55.4 46.4 72% 30.03 0.0
05 03:55 S 3 10.00 Fair CLR 55.4 46.4 72% 30.03 0.0
05 03:35 S 3 10.00 Fair CLR 57.2 46.4 67% 30.03 0.0
05 03:15 S 5 10.00 Fair CLR 59 46.4 63% 30.03 0.0
05 02:55 S 6 10.00 Fair CLR 59 46.4 63% 30.03 0.0
05 02:35 S 8 10.00 Fair CLR 59 46.4 63% 30.03 0.0
05 02:15 S 6 10.00 Fair CLR 59 46.4 63% 30.03 0.0
05 01:55 S 5 10.00 Fair CLR 59 46.4 63% 30.03 0.0
05 01:35 SE 6 10.00 Fair CLR 60.8 46.4 59% 30.04 0.0
05 01:15 SE 5 10.00 Fair CLR 60.8 44.6 55% 30.04 0.0
05 00:55 SE 5 10.00 Fair CLR 60.8 44.6 55% 30.04 0.0
05 00:35 SE 6 10.00 Fair CLR 60.8 44.6 55% 30.04 0.0
05 00:15 SE 5 10.00 Fair CLR 60.8 44.6 55% 30.04 0.0
04 23:55 SE 5 10.00 Fair CLR 62.6 44.6 52% 30.04 0.0
04 23:35 SE 6 10.00 Fair CLR 62.6 42.8 49% 30.05 0.0
04 23:15 SE 6 10.00 Fair CLR 60.8 41 48% 30.04 0.0
04 22:55 SE 5 10.00 Fair CLR 62.6 41 45% 30.04 0.0
04 22:35 SE 5 10.00 Fair CLR 62.6 42.8 49% 30.04 0.0
04 22:15 SE 3 10.00 Fair CLR 62.6 41 45% 30.03 0.0
04 21:55 S 5 10.00 Fair CLR 64.4 41 43% 30.03 0.0
04 21:35 S 5 10.00 Fair CLR 66.2 41 40% 30.03 0.0
04 21:15 S 6 10.00 Fair CLR 68 41 38% 30.02 0.0
04 20:55 S 5 10.00 Fair CLR 68 39.2 35% 30.01 0.0
04 20:35 SE 5 10.00 Fair CLR 69.8 41 35% 30.01 0.0
04 20:15 S 5 10.00 Fair CLR 69.8 39.2 33% 30 0.0
04 19:55 S 5 10.00 Fair CLR 71.6 37.4 29% 30 0.0
04 19:35 S 5 10.00 Fair CLR 73.4 35.6 25% 29.99 0.0
04 19:15 S 5 10.00 Fair CLR 73.4 37.4 27% 29.98 0.0
04 18:55 S 6 10.00 Fair CLR 75.2 33.8 22% 76 29.99 0.0
04 18:35 S 6 10.00 Fair CLR 77 32 19% 77 29.99 0.0
04 18:15 S 9 10.00 Fair CLR 77 32 19% 77 29.99 0.0
04 17:55 S 6 10.00 Fair CLR 78.8 32 18% 78 29.99 0.0
04 17:35 S 8 10.00 Fair CLR 78.8 30.2 17% 78 29.99 0.0
04 17:15 S 7 10.00 Fair CLR 78.8 32 18% 78 29.99 0.0
04 16:55 S 5 10.00 Fair CLR 78.8 32 18% 78 29.99 0.0
04 16:35 Calm 10.00 Fair CLR 78.8 32 18% 78 29.99 0.0
04 16:15 SE 6 7.00 Fair CLR 78.8 32 18% 78 30 0.0
04 15:55 S 9 10.00 Fair CLR 78.8 32 18% 78 30.01 0.0
04 15:35 S 10 10.00 Fair CLR 78.8 32 18% 78 30.02 0.0
04 15:15 SE 6 10.00 Fair CLR 77 33.8 21% 77 30.03 0.0
04 14:55 SE 5 10.00 Fair CLR 77 35.6 22% 77 30.03 0.0
04 14:35 S 9 10.00 Fair CLR 77 35.6 22% 77 30.03 0.0
04 14:15 SW 7 10.00 Fair CLR 75.2 33.8 22% 76 30.04 0.0
04 13:55 S 6 10.00 Fair CLR 75.2 35.6 24% 76 30.05 0.0
04 13:35 SE 6 10.00 Fair CLR 73.4 35.6 25% 30.06 0.0
04 13:15 Calm 10.00 Fair CLR 73.4 33.8 23% 30.06 0.0
04 12:55 SW 6 10.00 Fair CLR 73.4 37.4 27% 30.07 0.0
04 12:35 SW 7 10.00 Fair CLR 71.6 37.4 29% 30.08 0.0
04 12:15 SW 6 10.00 Fair CLR 71.6 41 33% 30.08 0.0
04 11:55 W 5 10.00 Fair CLR 71.6 39.2 31% 30.09 0.0
04 11:35 SW 9 10.00 Fair CLR 69.8 41 35% 30.09 0.0
04 11:15 W 6 10.00 Fair CLR 69.8 41 35% 30.09 0.0
04 10:55 SW 7 10.00 Fair CLR 68 42.8 40% 30.1 0.0
04 10:35 SW 9 10.00 Fair CLR 66.2 42.8 43% 30.1 0.0
04 10:15 SW 7 10.00 Fair CLR 66.2 42.8 43% 30.1 0.0
04 09:55 SW 5 10.00 Fair CLR 62.6 44.6 52% 30.1 0.0
04 09:35 S 5 10.00 Fair CLR 60.8 42.8 52% 30.09 0.0
04 09:15 S 5 10.00 Fair CLR 59 44.6 59% 30.09 0.0
04 08:55 S 5 10.00 Fair CLR 55.4 42.8 63% 30.09 0.0
04 08:35 S 3 10.00 Fair CLR 53.6 42.8 67% 30.09 0.0
04 07:55 S 5 10.00 Fair CLR 51.8 42.8 72% 30.09 0.0
04 07:35 S 3 10.00 Fair CLR 48.2 42.8 82% 30.09 0.0
04 07:15 SE 3 10.00 Fair CLR 46.4 41 82% 30.08 0.0
04 06:55 SE 5 10.00 Fair CLR 44.6 41 87% 43 30.08 0.0
04 06:35 Calm 10.00 Fair CLR 44.6 41 87% 30.08 0.0
04 06:15 Calm 10.00 Fair CLR 44.6 41 87% 30.08 0.0
04 05:55 SE 5 10.00 Fair CLR 44.6 41 87% 43 30.08 0.0
04 05:30 SE 3 10.00 Fair CLR 44.6 41 87% 30.08 0.0
04 05:15 Calm 10.00 Fair CLR 46.4 41 82% 30.08 0.0
04 04:55 Calm 10.00 Fair CLR 46.4 42.8 87% 30.08 0.0
04 04:35 SE 3 10.00 Fair CLR 46.4 41 82% 30.08 0.0
04 04:15 SE 6 10.00 Fair CLR 46.4 41 82% 44 30.07 0.0
04 03:55 Calm 10.00 Fair CLR 46.4 41 82% 30.07 0.0
04 03:35 S 3 10.00 Fair CLR 46.4 41 82% 30.07 0.0
04 03:15 S 3 10.00 Fair CLR 46.4 42.8 87% 30.07 0.0
04 02:55 S 3 10.00 Fair CLR 50 41 71% 30.08 0.0
04 02:35 S 3 10.00 Fair CLR 50 41 71% 30.08 0.0
04 02:15 S 6 10.00 Fair CLR 50 42.8 76% 48 30.08 0.0
04 01:55 S 5 10.00 Fair CLR 46.4 42.8 87% 45 30.08 0.0
04 01:35 Calm 10.00 Fair CLR 51.8 42.8 72% 30.08 0.0
Date Time (edt) Wind (mph) Vis. (mi.) Weather Sky Cond. Air Dwpt Max. Min. Relative Humidity Wind Chill (°F) Heat Index (°F) altimeter (in) sea level (mb) 1 hr 3 hr 6 hr
6 hour
Temperature (ºF) Pressure Precipitation (in)